sensor_id;sensor_type;location;lat;lon;timestamp;temperature;humidity
22813;DHT22;11573;51.334;3.244;2024-01-25T00:01:53;8.30;99.90
22813;DHT22;11573;51.334;3.244;2024-01-25T00:04:21;8.30;99.90
22813;DHT22;11573;51.334;3.244;2024-01-25T00:06:48;8.30;99.90
22813;DHT22;11573;51.334;3.244;2024-01-25T00:09:16;8.20;99.90
22813;DHT22;11573;51.334;3.244;2024-01-25T00:11:43;8.30;99.90
22813;DHT22;11573;51.334;3.244;2024-01-25T00:14:10;8.30;99.90
22813;DHT22;11573;51.334;3.244;2024-01-25T00:16:41;8.20;99.90
22813;DHT22;11573;51.334;3.244;2024-01-25T00:19:08;8.20;99.90
22813;DHT22;11573;51.334;3.244;2024-01-25T00:21:41;8.20;99.90
22813;DHT22;11573;51.334;3.244;2024-01-25T00:24:12;8.10;99.90
22813;DHT22;11573;51.334;3.244;2024-01-25T00:26:39;8.10;99.90
22813;DHT22;11573;51.334;3.244;2024-01-25T00:29:06;8.10;99.90
22813;DHT22;11573;51.334;3.244;2024-01-25T00:31:33;8.10;99.90
22813;DHT22;11573;51.334;3.244;2024-01-25T00:34:01;8.10;99.90
22813;DHT22;11573;51.334;3.244;2024-01-25T00:36:29;8.10;99.90
22813;DHT22;11573;51.334;3.244;2024-01-25T00:38:57;8.00;99.90
22813;DHT22;11573;51.334;3.244;2024-01-25T00:41:24;8.00;99.90
22813;DHT22;11573;51.334;3.244;2024-01-25T00:43:51;8.00;99.90
22813;DHT22;11573;51.334;3.244;2024-01-25T00:46:19;7.90;99.90
22813;DHT22;11573;51.334;3.244;2024-01-25T00:48:46;7.80;99.90
22813;DHT22;11573;51.334;3.244;2024-01-25T00:51:15;7.80;99.90
22813;DHT22;11573;51.334;3.244;2024-01-25T00:53:45;7.80;99.90
22813;DHT22;11573;51.334;3.244;2024-01-25T00:56:13;7.70;99.90
22813;DHT22;11573;51.334;3.244;2024-01-25T00:58:40;7.70;99.90
22813;DHT22;11573;51.334;3.244;2024-01-25T01:01:07;7.70;99.90
22813;DHT22;11573;51.334;3.244;2024-01-25T01:03:36;7.60;99.90
22813;DHT22;11573;51.334;3.244;2024-01-25T01:06:04;7.70;99.90
22813;DHT22;11573;51.334;3.244;2024-01-25T01:08:31;7.60;99.90
22813;DHT22;11573;51.334;3.244;2024-01-25T01:10:58;7.60;99.90
22813;DHT22;11573;51.334;3.244;2024-01-25T01:13:25;7.50;99.90
22813;DHT22;11573;51.334;3.244;2024-01-25T01:15:52;7.60;99.90
22813;DHT22;11573;51.334;3.244;2024-01-25T01:18:19;7.60;99.90
22813;DHT22;11573;51.334;3.244;2024-01-25T01:20:47;7.60;99.90
22813;DHT22;11573;51.334;3.244;2024-01-25T01:23:14;7.60;99.90
22813;DHT22;11573;51.334;3.244;2024-01-25T01:25:41;7.50;99.90
22813;DHT22;11573;51.334;3.244;2024-01-25T01:28:08;7.50;99.90
22813;DHT22;11573;51.334;3.244;2024-01-25T01:30:35;7.60;99.90
22813;DHT22;11573;51.334;3.244;2024-01-25T01:33:02;7.50;99.90
22813;DHT22;11573;51.334;3.244;2024-01-25T01:35:29;7.60;99.90
22813;DHT22;11573;51.334;3.244;2024-01-25T01:37:56;7.60;99.90
22813;DHT22;11573;51.334;3.244;2024-01-25T01:40:23;7.60;99.90
22813;DHT22;11573;51.334;3.244;2024-01-25T01:42:50;7.50;99.90
22813;DHT22;11573;51.334;3.244;2024-01-25T01:45:18;7.50;99.90
22813;DHT22;11573;51.334;3.244;2024-01-25T01:47:45;7.50;99.90
22813;DHT22;11573;51.334;3.244;2024-01-25T01:50:12;7.50;99.90
22813;DHT22;11573;51.334;3.244;2024-01-25T01:52:40;7.50;99.90
22813;DHT22;11573;51.334;3.244;2024-01-25T01:55:08;7.50;99.90
22813;DHT22;11573;51.334;3.244;2024-01-25T01:57:36;7.50;99.90
22813;DHT22;11573;51.334;3.244;2024-01-25T02:00:06;7.50;99.90
22813;DHT22;11573;51.334;3.244;2024-01-25T02:02:38;7.50;99.90
22813;DHT22;11573;51.334;3.244;2024-01-25T02:05:05;7.50;99.90
22813;DHT22;11573;51.334;3.244;2024-01-25T02:07:32;7.50;99.90
22813;DHT22;11573;51.334;3.244;2024-01-25T02:09:59;7.40;99.90
22813;DHT22;11573;51.334;3.244;2024-01-25T02:12:26;7.40;99.90
22813;DHT22;11573;51.334;3.244;2024-01-25T02:14:53;7.40;99.90
22813;DHT22;11573;51.334;3.244;2024-01-25T02:17:20;7.40;99.90
22813;DHT22;11573;51.334;3.244;2024-01-25T02:19:47;7.40;99.90
22813;DHT22;11573;51.334;3.244;2024-01-25T02:22:18;7.40;99.90
22813;DHT22;11573;51.334;3.244;2024-01-25T02:24:45;7.50;99.90
22813;DHT22;11573;51.334;3.244;2024-01-25T02:27:13;7.50;99.90
22813;DHT22;11573;51.334;3.244;2024-01-25T02:29:40;7.40;99.90
22813;DHT22;11573;51.334;3.244;2024-01-25T02:32:07;7.40;99.90
22813;DHT22;11573;51.334;3.244;2024-01-25T02:34:34;7.40;99.90
22813;DHT22;11573;51.334;3.244;2024-01-25T02:37:01;7.40;99.90
22813;DHT22;11573;51.334;3.244;2024-01-25T02:39:28;7.40;99.90
22813;DHT22;11573;51.334;3.244;2024-01-25T02:41:55;7.30;99.90
22813;DHT22;11573;51.334;3.244;2024-01-25T02:44:22;7.30;99.90
22813;DHT22;11573;51.334;3.244;2024-01-25T02:46:49;7.40;99.90
22813;DHT22;11573;51.334;3.244;2024-01-25T02:49:16;7.30;99.90
22813;DHT22;11573;51.334;3.244;2024-01-25T02:51:44;7.30;99.90
22813;DHT22;11573;51.334;3.244;2024-01-25T02:54:11;7.30;99.90
22813;DHT22;11573;51.334;3.244;2024-01-25T02:56:38;7.30;99.90
22813;DHT22;11573;51.334;3.244;2024-01-25T02:59:05;7.40;99.90
22813;DHT22;11573;51.334;3.244;2024-01-25T03:01:41;7.30;99.90
22813;DHT22;11573;51.334;3.244;2024-01-25T03:04:09;7.20;99.90
22813;DHT22;11573;51.334;3.244;2024-01-25T03:06:36;7.20;99.90
22813;DHT22;11573;51.334;3.244;2024-01-25T03:09:04;7.20;99.90
22813;DHT22;11573;51.334;3.244;2024-01-25T03:11:33;7.20;99.90
22813;DHT22;11573;51.334;3.244;2024-01-25T03:14:00;7.10;99.90
22813;DHT22;11573;51.334;3.244;2024-01-25T03:16:27;7.00;99.90
22813;DHT22;11573;51.334;3.244;2024-01-25T03:18:55;7.10;99.90
22813;DHT22;11573;51.334;3.244;2024-01-25T03:21:22;7.20;99.90
22813;DHT22;11573;51.334;3.244;2024-01-25T03:23:49;7.00;99.90
22813;DHT22;11573;51.334;3.244;2024-01-25T03:26:16;6.90;99.90
22813;DHT22;11573;51.334;3.244;2024-01-25T03:28:43;6.70;99.90
22813;DHT22;11573;51.334;3.244;2024-01-25T03:31:10;6.70;99.90
22813;DHT22;11573;51.334;3.244;2024-01-25T03:33:37;6.70;99.90
22813;DHT22;11573;51.334;3.244;2024-01-25T03:36:05;6.80;99.90
22813;DHT22;11573;51.334;3.244;2024-01-25T03:38:32;6.80;99.90
22813;DHT22;11573;51.334;3.244;2024-01-25T03:40:59;6.70;99.90
22813;DHT22;11573;51.334;3.244;2024-01-25T03:43:26;6.60;99.90
22813;DHT22;11573;51.334;3.244;2024-01-25T03:46:08;6.50;99.90
22813;DHT22;11573;51.334;3.244;2024-01-25T03:48:35;6.50;99.90
22813;DHT22;11573;51.334;3.244;2024-01-25T03:51:02;6.60;99.90
22813;DHT22;11573;51.334;3.244;2024-01-25T03:53:29;6.60;99.90
22813;DHT22;11573;51.334;3.244;2024-01-25T03:55:56;6.50;99.90
22813;DHT22;11573;51.334;3.244;2024-01-25T03:58:23;6.40;99.90
22813;DHT22;11573;51.334;3.244;2024-01-25T04:00:50;6.30;99.90
22813;DHT22;11573;51.334;3.244;2024-01-25T04:03:17;6.20;99.90
22813;DHT22;11573;51.334;3.244;2024-01-25T04:05:44;6.10;99.90
22813;DHT22;11573;51.334;3.244;2024-01-25T04:08:11;6.10;99.90
22813;DHT22;11573;51.334;3.244;2024-01-25T04:10:38;6.10;99.90
22813;DHT22;11573;51.334;3.244;2024-01-25T04:13:05;6.10;99.90
22813;DHT22;11573;51.334;3.244;2024-01-25T04:15:34;6.00;99.90
22813;DHT22;11573;51.334;3.244;2024-01-25T04:18:01;5.90;99.90
22813;DHT22;11573;51.334;3.244;2024-01-25T04:20:29;5.70;99.90
22813;DHT22;11573;51.334;3.244;2024-01-25T04:22:58;5.60;99.90
22813;DHT22;11573;51.334;3.244;2024-01-25T04:25:25;5.50;99.90
22813;DHT22;11573;51.334;3.244;2024-01-25T04:27:53;5.40;99.90
22813;DHT22;11573;51.334;3.244;2024-01-25T04:30:20;5.30;99.90
22813;DHT22;11573;51.334;3.244;2024-01-25T04:32:47;5.20;99.90
22813;DHT22;11573;51.334;3.244;2024-01-25T04:35:15;5.10;99.90
22813;DHT22;11573;51.334;3.244;2024-01-25T04:37:42;5.00;99.90
22813;DHT22;11573;51.334;3.244;2024-01-25T04:40:09;5.00;99.90
22813;DHT22;11573;51.334;3.244;2024-01-25T04:42:37;5.00;99.90
22813;DHT22;11573;51.334;3.244;2024-01-25T04:45:04;5.00;99.90
22813;DHT22;11573;51.334;3.244;2024-01-25T04:47:31;5.00;99.90
22813;DHT22;11573;51.334;3.244;2024-01-25T04:49:59;4.90;99.90
22813;DHT22;11573;51.334;3.244;2024-01-25T04:52:26;4.80;99.90
22813;DHT22;11573;51.334;3.244;2024-01-25T04:54:53;4.70;99.90
22813;DHT22;11573;51.334;3.244;2024-01-25T04:57:20;4.60;99.90
22813;DHT22;11573;51.334;3.244;2024-01-25T04:59:47;4.60;99.90
22813;DHT22;11573;51.334;3.244;2024-01-25T05:02:14;4.60;99.90
22813;DHT22;11573;51.334;3.244;2024-01-25T05:04:41;4.70;99.90
22813;DHT22;11573;51.334;3.244;2024-01-25T05:07:11;4.70;99.90
22813;DHT22;11573;51.334;3.244;2024-01-25T05:09:39;4.60;99.90
22813;DHT22;11573;51.334;3.244;2024-01-25T05:12:06;4.50;99.90
22813;DHT22;11573;51.334;3.244;2024-01-25T05:14:33;4.40;99.90
22813;DHT22;11573;51.334;3.244;2024-01-25T05:17:00;4.40;99.90
22813;DHT22;11573;51.334;3.244;2024-01-25T05:19:27;4.40;99.90
22813;DHT22;11573;51.334;3.244;2024-01-25T05:21:54;4.40;99.90
22813;DHT22;11573;51.334;3.244;2024-01-25T05:24:21;4.20;99.90
22813;DHT22;11573;51.334;3.244;2024-01-25T05:26:48;4.30;99.90
22813;DHT22;11573;51.334;3.244;2024-01-25T05:29:16;4.20;99.90
22813;DHT22;11573;51.334;3.244;2024-01-25T05:31:43;4.10;99.90
22813;DHT22;11573;51.334;3.244;2024-01-25T05:34:10;4.10;99.90
22813;DHT22;11573;51.334;3.244;2024-01-25T05:36:37;4.10;99.90
22813;DHT22;11573;51.334;3.244;2024-01-25T05:39:04;4.10;99.90
22813;DHT22;11573;51.334;3.244;2024-01-25T05:41:33;4.10;99.90
22813;DHT22;11573;51.334;3.244;2024-01-25T05:44:00;4.20;99.90
22813;DHT22;11573;51.334;3.244;2024-01-25T05:46:27;4.20;99.90
22813;DHT22;11573;51.334;3.244;2024-01-25T05:48:55;4.10;99.90
22813;DHT22;11573;51.334;3.244;2024-01-25T05:51:23;4.10;99.90
22813;DHT22;11573;51.334;3.244;2024-01-25T05:53:50;4.00;99.90
22813;DHT22;11573;51.334;3.244;2024-01-25T05:56:17;4.00;99.90
22813;DHT22;11573;51.334;3.244;2024-01-25T05:58:44;4.00;99.90
22813;DHT22;11573;51.334;3.244;2024-01-25T06:01:11;4.00;99.90
22813;DHT22;11573;51.334;3.244;2024-01-25T06:03:38;3.90;99.90
22813;DHT22;11573;51.334;3.244;2024-01-25T06:06:05;3.90;99.90
22813;DHT22;11573;51.334;3.244;2024-01-25T06:08:35;3.90;99.90
22813;DHT22;11573;51.334;3.244;2024-01-25T06:11:02;3.90;99.90
22813;DHT22;11573;51.334;3.244;2024-01-25T06:13:31;4.00;99.90
22813;DHT22;11573;51.334;3.244;2024-01-25T06:15:59;4.00;99.90
22813;DHT22;11573;51.334;3.244;2024-01-25T06:18:26;4.00;99.90
22813;DHT22;11573;51.334;3.244;2024-01-25T06:20:54;3.90;99.90
22813;DHT22;11573;51.334;3.244;2024-01-25T06:23:20;3.90;99.90
22813;DHT22;11573;51.334;3.244;2024-01-25T06:25:47;3.90;99.90
22813;DHT22;11573;51.334;3.244;2024-01-25T06:28:14;4.00;99.90
22813;DHT22;11573;51.334;3.244;2024-01-25T06:30:41;4.00;99.90
22813;DHT22;11573;51.334;3.244;2024-01-25T06:33:08;4.00;99.90
22813;DHT22;11573;51.334;3.244;2024-01-25T06:35:35;4.00;99.90
22813;DHT22;11573;51.334;3.244;2024-01-25T06:38:03;4.10;99.90
22813;DHT22;11573;51.334;3.244;2024-01-25T06:40:30;4.00;99.90
22813;DHT22;11573;51.334;3.244;2024-01-25T06:42:56;4.30;99.90
22813;DHT22;11573;51.334;3.244;2024-01-25T06:45:24;4.40;99.90
22813;DHT22;11573;51.334;3.244;2024-01-25T06:47:50;4.40;99.90
22813;DHT22;11573;51.334;3.244;2024-01-25T06:50:18;4.30;99.90
22813;DHT22;11573;51.334;3.244;2024-01-25T06:52:45;4.30;99.90
22813;DHT22;11573;51.334;3.244;2024-01-25T06:55:12;4.20;99.90
22813;DHT22;11573;51.334;3.244;2024-01-25T06:57:39;4.20;99.90
22813;DHT22;11573;51.334;3.244;2024-01-25T07:00:07;4.20;99.90
22813;DHT22;11573;51.334;3.244;2024-01-25T07:02:35;4.10;99.90
22813;DHT22;11573;51.334;3.244;2024-01-25T07:05:03;4.10;99.90
22813;DHT22;11573;51.334;3.244;2024-01-25T07:07:31;4.10;99.90
22813;DHT22;11573;51.334;3.244;2024-01-25T07:09:59;4.10;99.90
22813;DHT22;11573;51.334;3.244;2024-01-25T07:12:27;4.10;99.90
22813;DHT22;11573;51.334;3.244;2024-01-25T07:14:55;4.10;99.90
22813;DHT22;11573;51.334;3.244;2024-01-25T07:17:23;4.10;99.90
22813;DHT22;11573;51.334;3.244;2024-01-25T07:19:52;4.10;99.90
22813;DHT22;11573;51.334;3.244;2024-01-25T07:22:19;4.10;99.90
22813;DHT22;11573;51.334;3.244;2024-01-25T07:24:49;4.20;99.90
22813;DHT22;11573;51.334;3.244;2024-01-25T07:27:16;4.20;99.90
22813;DHT22;11573;51.334;3.244;2024-01-25T07:29:44;4.20;99.90
22813;DHT22;11573;51.334;3.244;2024-01-25T07:32:14;4.20;99.90
22813;DHT22;11573;51.334;3.244;2024-01-25T07:34:41;4.20;99.90
22813;DHT22;11573;51.334;3.244;2024-01-25T07:37:08;4.20;99.90
22813;DHT22;11573;51.334;3.244;2024-01-25T07:39:37;4.10;99.90
22813;DHT22;11573;51.334;3.244;2024-01-25T07:42:05;4.10;99.90
22813;DHT22;11573;51.334;3.244;2024-01-25T07:44:31;4.10;99.90
22813;DHT22;11573;51.334;3.244;2024-01-25T07:46:58;4.10;99.90
22813;DHT22;11573;51.334;3.244;2024-01-25T07:49:25;4.10;99.90
22813;DHT22;11573;51.334;3.244;2024-01-25T07:51:53;4.20;99.90
22813;DHT22;11573;51.334;3.244;2024-01-25T07:54:20;4.10;99.90
22813;DHT22;11573;51.334;3.244;2024-01-25T07:56:47;4.20;99.90
22813;DHT22;11573;51.334;3.244;2024-01-25T07:59:14;4.20;99.90
22813;DHT22;11573;51.334;3.244;2024-01-25T08:01:41;4.30;99.90
22813;DHT22;11573;51.334;3.244;2024-01-25T08:04:08;4.30;99.90
22813;DHT22;11573;51.334;3.244;2024-01-25T08:06:35;4.30;99.90
22813;DHT22;11573;51.334;3.244;2024-01-25T08:09:02;4.40;99.90
22813;DHT22;11573;51.334;3.244;2024-01-25T08:11:29;4.50;99.90
22813;DHT22;11573;51.334;3.244;2024-01-25T08:13:56;4.70;99.90
22813;DHT22;11573;51.334;3.244;2024-01-25T08:16:24;4.70;99.90
22813;DHT22;11573;51.334;3.244;2024-01-25T08:18:51;4.80;99.90
22813;DHT22;11573;51.334;3.244;2024-01-25T08:21:19;4.90;99.90
22813;DHT22;11573;51.334;3.244;2024-01-25T08:23:46;4.90;99.90
22813;DHT22;11573;51.334;3.244;2024-01-25T08:26:13;5.10;99.90
22813;DHT22;11573;51.334;3.244;2024-01-25T08:28:40;5.30;99.90
22813;DHT22;11573;51.334;3.244;2024-01-25T08:31:08;5.40;99.90
22813;DHT22;11573;51.334;3.244;2024-01-25T08:33:35;5.60;99.90
22813;DHT22;11573;51.334;3.244;2024-01-25T08:36:04;5.70;99.90
22813;DHT22;11573;51.334;3.244;2024-01-25T08:38:31;5.90;99.90
22813;DHT22;11573;51.334;3.244;2024-01-25T08:40:58;5.90;99.90
22813;DHT22;11573;51.334;3.244;2024-01-25T08:43:25;5.90;99.90
22813;DHT22;11573;51.334;3.244;2024-01-25T08:45:52;6.00;99.90
22813;DHT22;11573;51.334;3.244;2024-01-25T08:48:20;6.10;99.90
22813;DHT22;11573;51.334;3.244;2024-01-25T08:50:47;6.20;99.90
22813;DHT22;11573;51.334;3.244;2024-01-25T08:53:20;6.20;99.90
22813;DHT22;11573;51.334;3.244;2024-01-25T08:55:54;6.40;99.90
22813;DHT22;11573;51.334;3.244;2024-01-25T08:58:22;6.50;99.90
22813;DHT22;11573;51.334;3.244;2024-01-25T09:00:49;6.50;99.90
22813;DHT22;11573;51.334;3.244;2024-01-25T09:03:16;6.80;99.90
22813;DHT22;11573;51.334;3.244;2024-01-25T09:05:44;6.80;99.90
22813;DHT22;11573;51.334;3.244;2024-01-25T09:08:14;7.00;99.90
22813;DHT22;11573;51.334;3.244;2024-01-25T09:10:42;7.00;99.90
22813;DHT22;11573;51.334;3.244;2024-01-25T09:13:10;7.10;99.90
22813;DHT22;11573;51.334;3.244;2024-01-25T09:15:37;7.10;99.90
22813;DHT22;11573;51.334;3.244;2024-01-25T09:18:04;7.20;99.90
22813;DHT22;11573;51.334;3.244;2024-01-25T09:20:31;7.30;99.90
22813;DHT22;11573;51.334;3.244;2024-01-25T09:22:59;7.40;99.90
22813;DHT22;11573;51.334;3.244;2024-01-25T09:25:26;7.50;99.90
22813;DHT22;11573;51.334;3.244;2024-01-25T09:27:53;7.60;99.90
22813;DHT22;11573;51.334;3.244;2024-01-25T09:30:22;7.50;99.90
22813;DHT22;11573;51.334;3.244;2024-01-25T09:32:50;7.60;99.90
22813;DHT22;11573;51.334;3.244;2024-01-25T09:35:17;7.60;99.90
22813;DHT22;11573;51.334;3.244;2024-01-25T09:37:45;7.70;99.90
22813;DHT22;11573;51.334;3.244;2024-01-25T09:40:12;7.70;99.90
22813;DHT22;11573;51.334;3.244;2024-01-25T09:42:39;7.70;99.90
22813;DHT22;11573;51.334;3.244;2024-01-25T09:45:07;7.90;99.90
22813;DHT22;11573;51.334;3.244;2024-01-25T09:47:35;7.80;99.90
22813;DHT22;11573;51.334;3.244;2024-01-25T09:50:02;7.80;99.90
22813;DHT22;11573;51.334;3.244;2024-01-25T09:52:31;7.90;99.90
22813;DHT22;11573;51.334;3.244;2024-01-25T09:54:59;8.10;99.90
22813;DHT22;11573;51.334;3.244;2024-01-25T09:57:28;8.20;99.90
22813;DHT22;11573;51.334;3.244;2024-01-25T09:59:57;8.20;99.90
22813;DHT22;11573;51.334;3.244;2024-01-25T10:02:24;8.20;99.90
22813;DHT22;11573;51.334;3.244;2024-01-25T10:04:52;8.20;99.90
22813;DHT22;11573;51.334;3.244;2024-01-25T10:07:36;8.30;99.90
22813;DHT22;11573;51.334;3.244;2024-01-25T10:10:04;8.30;99.90
22813;DHT22;11573;51.334;3.244;2024-01-25T10:12:32;8.50;99.90
22813;DHT22;11573;51.334;3.244;2024-01-25T10:14:59;8.40;99.90
22813;DHT22;11573;51.334;3.244;2024-01-25T10:17:28;8.30;99.90
22813;DHT22;11573;51.334;3.244;2024-01-25T10:20:16;8.60;99.90
22813;DHT22;11573;51.334;3.244;2024-01-25T10:22:44;9.00;99.90
22813;DHT22;11573;51.334;3.244;2024-01-25T10:25:13;8.90;99.90
22813;DHT22;11573;51.334;3.244;2024-01-25T10:27:41;8.90;99.90
22813;DHT22;11573;51.334;3.244;2024-01-25T10:30:10;9.00;99.90
22813;DHT22;11573;51.334;3.244;2024-01-25T10:32:39;9.00;99.90
22813;DHT22;11573;51.334;3.244;2024-01-25T10:35:08;9.00;99.90
22813;DHT22;11573;51.334;3.244;2024-01-25T10:37:38;9.00;99.90
22813;DHT22;11573;51.334;3.244;2024-01-25T10:40:10;9.10;99.90
22813;DHT22;11573;51.334;3.244;2024-01-25T10:42:37;9.10;99.90
22813;DHT22;11573;51.334;3.244;2024-01-25T10:45:07;9.20;99.90
22813;DHT22;11573;51.334;3.244;2024-01-25T10:47:35;9.10;99.90
22813;DHT22;11573;51.334;3.244;2024-01-25T10:50:03;9.10;99.90
22813;DHT22;11573;51.334;3.244;2024-01-25T10:52:31;9.10;99.90
22813;DHT22;11573;51.334;3.244;2024-01-25T10:54:59;9.10;99.90
22813;DHT22;11573;51.334;3.244;2024-01-25T10:57:26;9.10;99.90
22813;DHT22;11573;51.334;3.244;2024-01-25T11:00:01;9.10;99.90
22813;DHT22;11573;51.334;3.244;2024-01-25T11:02:30;9.10;99.90
22813;DHT22;11573;51.334;3.244;2024-01-25T11:04:59;9.10;99.90
22813;DHT22;11573;51.334;3.244;2024-01-25T11:07:26;9.10;99.90
22813;DHT22;11573;51.334;3.244;2024-01-25T11:09:53;9.00;99.90
22813;DHT22;11573;51.334;3.244;2024-01-25T11:12:21;9.00;99.90
22813;DHT22;11573;51.334;3.244;2024-01-25T11:14:55;9.00;99.90
22813;DHT22;11573;51.334;3.244;2024-01-25T11:17:22;9.20;99.90
22813;DHT22;11573;51.334;3.244;2024-01-25T11:19:50;9.20;99.90
22813;DHT22;11573;51.334;3.244;2024-01-25T11:22:19;9.20;99.90
22813;DHT22;11573;51.334;3.244;2024-01-25T11:24:46;9.40;99.90
22813;DHT22;11573;51.334;3.244;2024-01-25T11:27:16;9.50;99.90
22813;DHT22;11573;51.334;3.244;2024-01-25T11:29:43;9.80;99.90
22813;DHT22;11573;51.334;3.244;2024-01-25T11:32:12;9.90;99.90
22813;DHT22;11573;51.334;3.244;2024-01-25T11:34:39;10.00;99.90
22813;DHT22;11573;51.334;3.244;2024-01-25T11:37:07;10.10;99.90
22813;DHT22;11573;51.334;3.244;2024-01-25T11:39:34;10.00;99.90
22813;DHT22;11573;51.334;3.244;2024-01-25T11:42:01;10.10;99.90
22813;DHT22;11573;51.334;3.244;2024-01-25T11:44:29;10.20;99.90
22813;DHT22;11573;51.334;3.244;2024-01-25T11:46:56;10.20;99.90
22813;DHT22;11573;51.334;3.244;2024-01-25T11:49:24;10.10;99.90
22813;DHT22;11573;51.334;3.244;2024-01-25T11:51:52;10.20;99.90
22813;DHT22;11573;51.334;3.244;2024-01-25T11:54:20;10.20;99.90
22813;DHT22;11573;51.334;3.244;2024-01-25T11:56:47;10.20;99.90
22813;DHT22;11573;51.334;3.244;2024-01-25T11:59:15;10.10;99.90
22813;DHT22;11573;51.334;3.244;2024-01-25T12:01:42;10.10;99.90
22813;DHT22;11573;51.334;3.244;2024-01-25T12:04:10;10.20;99.90
22813;DHT22;11573;51.334;3.244;2024-01-25T12:06:37;10.30;99.90
22813;DHT22;11573;51.334;3.244;2024-01-25T12:09:11;10.30;99.90
22813;DHT22;11573;51.334;3.244;2024-01-25T12:11:41;10.20;99.90
22813;DHT22;11573;51.334;3.244;2024-01-25T12:14:09;10.20;99.90
22813;DHT22;11573;51.334;3.244;2024-01-25T12:16:37;10.10;99.90
22813;DHT22;11573;51.334;3.244;2024-01-25T12:19:05;10.00;99.90
22813;DHT22;11573;51.334;3.244;2024-01-25T12:21:34;10.00;99.90
22813;DHT22;11573;51.334;3.244;2024-01-25T12:24:02;10.20;99.90
22813;DHT22;11573;51.334;3.244;2024-01-25T12:26:37;10.20;99.90
22813;DHT22;11573;51.334;3.244;2024-01-25T12:29:05;10.10;99.90
22813;DHT22;11573;51.334;3.244;2024-01-25T12:31:32;10.20;99.90
22813;DHT22;11573;51.334;3.244;2024-01-25T12:34:00;10.30;99.90
22813;DHT22;11573;51.334;3.244;2024-01-25T12:36:28;10.20;99.90
22813;DHT22;11573;51.334;3.244;2024-01-25T12:38:55;10.30;99.90
22813;DHT22;11573;51.334;3.244;2024-01-25T12:41:23;10.30;99.90
22813;DHT22;11573;51.334;3.244;2024-01-25T12:43:50;10.40;99.90
22813;DHT22;11573;51.334;3.244;2024-01-25T12:46:19;10.40;99.90
22813;DHT22;11573;51.334;3.244;2024-01-25T12:48:54;10.40;99.90
22813;DHT22;11573;51.334;3.244;2024-01-25T12:51:24;10.50;99.90
22813;DHT22;11573;51.334;3.244;2024-01-25T12:53:51;10.60;99.90
22813;DHT22;11573;51.334;3.244;2024-01-25T12:56:18;10.60;99.90
22813;DHT22;11573;51.334;3.244;2024-01-25T12:58:45;10.70;99.90
22813;DHT22;11573;51.334;3.244;2024-01-25T13:01:13;10.70;99.90
22813;DHT22;11573;51.334;3.244;2024-01-25T13:03:42;10.70;99.90
22813;DHT22;11573;51.334;3.244;2024-01-25T13:06:12;10.60;99.90
22813;DHT22;11573;51.334;3.244;2024-01-25T13:08:39;10.60;99.90
22813;DHT22;11573;51.334;3.244;2024-01-25T13:11:06;10.50;99.90
22813;DHT22;11573;51.334;3.244;2024-01-25T13:13:33;10.40;99.90
22813;DHT22;11573;51.334;3.244;2024-01-25T13:16:00;10.40;99.90
22813;DHT22;11573;51.334;3.244;2024-01-25T13:18:28;10.50;99.90
22813;DHT22;11573;51.334;3.244;2024-01-25T13:20:55;10.50;99.90
22813;DHT22;11573;51.334;3.244;2024-01-25T13:23:22;10.50;99.90
22813;DHT22;11573;51.334;3.244;2024-01-25T13:25:49;10.60;99.90
22813;DHT22;11573;51.334;3.244;2024-01-25T13:28:17;10.70;99.90
22813;DHT22;11573;51.334;3.244;2024-01-25T13:30:48;10.70;99.90
22813;DHT22;11573;51.334;3.244;2024-01-25T13:33:15;10.80;99.90
22813;DHT22;11573;51.334;3.244;2024-01-25T13:35:42;10.70;99.90
22813;DHT22;11573;51.334;3.244;2024-01-25T13:38:10;10.80;99.90
22813;DHT22;11573;51.334;3.244;2024-01-25T13:40:41;10.80;99.90
22813;DHT22;11573;51.334;3.244;2024-01-25T13:43:08;10.80;99.90
22813;DHT22;11573;51.334;3.244;2024-01-25T13:45:35;10.70;99.90
22813;DHT22;11573;51.334;3.244;2024-01-25T13:48:02;10.80;99.90
22813;DHT22;11573;51.334;3.244;2024-01-25T13:50:29;10.90;99.90
22813;DHT22;11573;51.334;3.244;2024-01-25T13:52:56;11.00;99.90
22813;DHT22;11573;51.334;3.244;2024-01-25T13:55:23;11.00;99.90
22813;DHT22;11573;51.334;3.244;2024-01-25T13:57:50;11.00;99.90
22813;DHT22;11573;51.334;3.244;2024-01-25T14:00:18;10.90;99.90
22813;DHT22;11573;51.334;3.244;2024-01-25T14:02:45;10.90;99.90
22813;DHT22;11573;51.334;3.244;2024-01-25T14:05:13;10.90;99.90
22813;DHT22;11573;51.334;3.244;2024-01-25T14:07:40;11.00;99.90
22813;DHT22;11573;51.334;3.244;2024-01-25T14:10:09;11.00;99.90
22813;DHT22;11573;51.334;3.244;2024-01-25T14:12:37;11.10;99.90
22813;DHT22;11573;51.334;3.244;2024-01-25T14:15:04;11.10;99.90
22813;DHT22;11573;51.334;3.244;2024-01-25T14:17:31;11.10;99.90
22813;DHT22;11573;51.334;3.244;2024-01-25T14:19:59;11.20;99.90
22813;DHT22;11573;51.334;3.244;2024-01-25T14:22:28;11.30;99.90
22813;DHT22;11573;51.334;3.244;2024-01-25T14:25:01;11.30;99.90
22813;DHT22;11573;51.334;3.244;2024-01-25T14:27:28;11.30;99.90
22813;DHT22;11573;51.334;3.244;2024-01-25T14:29:55;11.30;99.90
22813;DHT22;11573;51.334;3.244;2024-01-25T14:32:22;11.30;99.90
22813;DHT22;11573;51.334;3.244;2024-01-25T14:34:50;11.30;99.90
22813;DHT22;11573;51.334;3.244;2024-01-25T14:37:18;11.30;99.90
22813;DHT22;11573;51.334;3.244;2024-01-25T14:39:45;11.30;99.90
22813;DHT22;11573;51.334;3.244;2024-01-25T14:42:32;11.30;99.90
22813;DHT22;11573;51.334;3.244;2024-01-25T14:44:59;11.30;99.90
22813;DHT22;11573;51.334;3.244;2024-01-25T14:47:26;11.20;99.90
22813;DHT22;11573;51.334;3.244;2024-01-25T14:49:53;11.20;99.90
22813;DHT22;11573;51.334;3.244;2024-01-25T14:52:20;11.20;99.90
22813;DHT22;11573;51.334;3.244;2024-01-25T14:54:47;11.20;99.90
22813;DHT22;11573;51.334;3.244;2024-01-25T14:57:14;11.20;99.90
22813;DHT22;11573;51.334;3.244;2024-01-25T14:59:42;11.20;99.90
22813;DHT22;11573;51.334;3.244;2024-01-25T15:02:11;11.20;99.90
22813;DHT22;11573;51.334;3.244;2024-01-25T15:04:38;11.20;99.90
22813;DHT22;11573;51.334;3.244;2024-01-25T15:07:05;11.20;99.90
22813;DHT22;11573;51.334;3.244;2024-01-25T15:09:32;11.20;99.90
22813;DHT22;11573;51.334;3.244;2024-01-25T15:12:00;11.30;99.90
22813;DHT22;11573;51.334;3.244;2024-01-25T15:14:27;11.30;99.90
22813;DHT22;11573;51.334;3.244;2024-01-25T15:16:54;11.20;99.90
22813;DHT22;11573;51.334;3.244;2024-01-25T15:19:21;11.20;99.90
22813;DHT22;11573;51.334;3.244;2024-01-25T15:21:48;11.20;99.90
22813;DHT22;11573;51.334;3.244;2024-01-25T15:24:15;11.10;99.90
22813;DHT22;11573;51.334;3.244;2024-01-25T15:26:43;11.10;99.90
22813;DHT22;11573;51.334;3.244;2024-01-25T15:29:10;11.10;99.90
22813;DHT22;11573;51.334;3.244;2024-01-25T15:31:38;11.10;99.90
22813;DHT22;11573;51.334;3.244;2024-01-25T15:34:06;11.00;99.90
22813;DHT22;11573;51.334;3.244;2024-01-25T15:36:33;11.00;99.90
22813;DHT22;11573;51.334;3.244;2024-01-25T15:39:02;10.90;99.90
22813;DHT22;11573;51.334;3.244;2024-01-25T15:41:30;11.00;99.90
22813;DHT22;11573;51.334;3.244;2024-01-25T15:43:57;11.10;99.90
22813;DHT22;11573;51.334;3.244;2024-01-25T15:46:25;11.10;99.90